Time;durP1;ratioP1;P1;durP2;ratioP2;P2;SDS_P1;SDS_P2;PMS_P1;PMS_P2;Temp;Humidity;BMP_temperature;BMP_pressure;BME280_temperature;BME280_humidity;BME280_pressure;Samples;Min_cycle;Max_cycle;Signal;HPM_P1;HPM_P2
2023/06/23 00:00:20;;;;;;;3.78;3.45;;;21.10;82.10;;;22.44;57.07;97625.06;5080465;28;20364;-48
2023/06/23 00:02:48;;;;;;;3.40;3.10;;;21.00;82.70;;;22.44;56.88;97627.75;5081547;28;20053;-47
2023/06/23 00:05:15;;;;;;;4.28;3.72;;;21.00;82.60;;;22.36;57.14;97632.47;5059279;28;20044;-48
2023/06/23 00:07:43;;;;;;;3.85;3.38;;;20.90;82.80;;;22.30;57.46;97644.28;5062401;28;20045;-49
2023/06/23 00:10:11;;;;;;;3.85;3.20;;;20.90;83.30;;;22.29;57.30;97653.47;5083467;28;20044;-47
2023/06/23 00:12:41;;;;;;;4.38;3.67;;;20.90;83.50;;;22.22;57.58;97666.31;5057382;28;20040;-48
2023/06/23 00:15:14;;;;;;;3.85;3.45;;;20.80;83.80;;;22.32;57.24;97677.41;5065801;28;20063;-49
2023/06/23 00:17:47;;;;;;;4.10;3.67;;;20.80;83.80;;;22.28;57.63;97675.41;5063963;28;20051;-47
2023/06/23 00:20:15;;;;;;;4.35;3.33;;;20.80;83.60;;;22.33;57.20;97673.66;5053289;28;20499;-47
2023/06/23 00:22:44;;;;;;;4.00;3.60;;;20.90;83.40;;;22.26;57.63;97674.81;5080973;28;20500;-49
2023/06/23 00:25:12;;;;;;;5.18;3.95;;;20.80;83.60;;;22.28;57.42;97675.41;5083481;28;20511;-47
2023/06/23 00:27:44;;;;;;;3.95;3.33;;;20.80;84.60;;;22.30;57.80;97678.72;5081599;28;20040;-48
2023/06/23 00:30:14;;;;;;;4.10;3.05;;;20.80;83.60;;;22.15;57.91;97679.13;5062068;28;20056;-48
2023/06/23 00:32:43;;;;;;;4.30;3.30;;;20.60;84.00;;;21.88;58.29;97690.41;5054696;28;20045;-48
2023/06/23 00:35:14;;;;;;;3.70;3.40;;;20.50;85.30;;;22.03;57.89;97689.97;5063654;28;20414;-48
2023/06/23 00:37:45;;;;;;;4.15;3.75;;;20.60;84.80;;;22.10;57.55;97695.28;5081108;28;20054;-48
2023/06/23 00:40:13;;;;;;;3.70;3.30;;;20.70;84.00;;;22.13;57.66;97702.94;5052996;28;20071;-50
2023/06/23 00:42:52;;;;;;;3.92;3.08;;;20.70;83.60;;;21.69;59.31;97705.09;5053142;28;20052;-47
2023/06/23 00:45:21;;;;;;;3.75;3.25;;;20.30;85.90;;;21.92;58.31;97705.13;5058648;28;20052;-47
2023/06/23 00:47:49;;;;;;;5.35;3.60;;;20.50;85.50;;;21.70;59.09;97709.47;5053499;28;20040;-50
2023/06/23 00:50:22;;;;;;;3.47;3.15;;;20.40;86.10;;;21.53;59.93;97698.44;5059352;28;20051;-48
2023/06/23 00:52:52;;;;;;;3.58;2.97;;;20.20;87.60;;;21.62;59.17;97699.78;5052646;28;20495;-47
2023/06/23 00:55:26;;;;;;;4.55;3.60;;;20.30;87.90;;;21.56;60.28;97703.41;5052066;28;20049;-47
2023/06/23 00:57:56;;;;;;;4.70;3.47;;;20.20;89.30;;;21.56;60.49;97714.25;5052129;28;20075;-47
2023/06/23 01:00:27;;;;;;;3.85;3.45;;;20.20;93.10;;;21.33;61.93;97715.75;5071268;28;20048;-49
2023/06/23 01:03:02;;;;;;;3.88;2.92;;;19.90;99.30;;;21.22;62.56;97725.47;5056070;28;20052;-47
2023/06/23 01:05:39;;;;;;;3.80;3.33;;;19.70;99.90;;;21.29;62.77;97732.72;5082080;28;20040;-48
2023/06/23 01:08:33;;;;;;;5.20;4.15;;;19.80;99.90;;;21.12;62.94;97746.03;5067173;28;20395;-48
2023/06/23 01:11:24;;;;;;;5.97;3.92;;;19.60;99.90;;;20.94;64.76;97749.56;5053160;28;20047;-48
2023/06/23 01:14:07;;;;;;;4.07;3.65;;;19.60;99.90;;;20.84;63.90;97750.09;5035622;28;20408;-47
2023/06/23 01:16:47;;;;;;;4.28;3.60;;;19.50;99.90;;;20.82;63.59;97758.44;5052842;28;20048;-47
2023/06/23 01:19:43;;;;;;;3.90;3.40;;;19.40;99.90;;;20.51;64.78;97747.66;5027002;28;20045;-47
2023/06/23 01:22:36;;;;;;;4.20;3.58;;;19.10;99.90;;;20.16;65.91;97751.72;5042013;28;20497;-48
2023/06/23 01:25:34;;;;;;;4.32;3.72;;;19.00;99.90;;;20.17;64.49;97757.94;5044273;28;20044;-50
2023/06/23 01:28:14;;;;;;;4.88;3.70;;;18.90;99.90;;;19.67;64.46;97769.47;5043609;28;20500;-47
2023/06/23 01:30:46;;;;;;;5.18;3.95;;;18.60;99.90;;;19.27;65.60;97764.28;5068384;28;20522;-49
2023/06/23 01:33:21;;;;;;;6.43;4.85;;;18.30;99.90;;;19.19;66.34;97768.03;5052276;28;20084;-48
2023/06/23 01:36:03;;;;;;;5.82;3.72;;;18.20;99.90;;;19.22;66.17;97758.69;5054173;28;20049;-48
2023/06/23 01:38:37;;;;;;;4.55;4.05;;;18.20;99.90;;;19.27;66.26;97770.50;5082510;28;20483;-48
2023/06/23 01:41:14;;;;;;;6.13;4.05;;;18.20;99.90;;;19.11;66.86;97770.94;5051756;28;20511;-47
2023/06/23 01:43:47;;;;;;;4.82;4.15;;;18.10;99.90;;;19.25;66.23;97767.19;5052118;28;20048;-47
2023/06/23 01:46:25;;;;;;;7.88;3.80;;;18.20;99.90;;;19.46;66.46;97766.06;5060213;28;20056;-48
2023/06/23 01:49:01;;;;;;;4.43;3.10;;;18.30;99.90;;;19.69;65.68;97770.06;5052774;28;20083;-48
2023/06/23 01:51:30;;;;;;;4.22;3.20;;;18.40;99.90;;;19.42;66.51;97781.00;5055863;28;20036;-47
2023/06/23 01:53:58;;;;;;;3.85;3.42;;;18.20;99.90;;;19.44;66.80;97783.50;5035454;28;20049;-47
2023/06/23 01:56:28;;;;;;;4.03;3.05;;;18.10;99.90;;;19.34;66.53;97777.72;5052504;28;20040;-49
2023/06/23 01:58:59;;;;;;;4.03;3.30;;;18.10;99.90;;;19.33;66.75;97785.00;5052157;28;20420;-46
2023/06/23 02:01:28;;;;;;;5.75;3.65;;;18.00;99.90;;;19.23;67.13;97784.59;5043332;28;20057;-48
2023/06/23 02:03:59;;;;;;;3.80;3.03;;;17.80;99.90;;;19.08;68.22;97787.59;5044967;28;20048;-49
2023/06/23 02:06:29;;;;;;;4.80;3.78;;;17.70;99.90;;;18.96;68.11;97784.72;5041283;28;20048;-48
2023/06/23 02:08:59;;;;;;;4.15;3.70;;;17.60;99.90;;;19.19;67.37;97791.47;5053406;28;20048;-48
2023/06/23 02:11:28;;;;;;;6.18;4.40;;;17.80;99.90;;;19.23;67.35;97790.84;5058557;28;20043;-46
2023/06/23 02:13:57;;;;;;;4.43;3.97;;;17.70;99.90;;;19.12;67.62;97793.38;5061834;28;20045;-47
2023/06/23 02:16:27;;;;;;;4.45;3.78;;;17.70;99.90;;;18.97;68.45;97783.66;5058440;28;20036;-47
2023/06/23 02:18:57;;;;;;;4.43;3.55;;;17.60;99.90;;;18.80;68.94;97790.53;5056695;28;20045;-47
2023/06/23 02:21:27;;;;;;;5.43;4.10;;;17.40;99.90;;;18.85;68.56;97782.66;5041954;28;20056;-47
2023/06/23 02:23:56;;;;;;;6.43;5.18;;;17.50;99.90;;;18.80;68.58;97802.16;5079046;28;20048;-47
2023/06/23 02:26:25;;;;;;;8.60;6.25;;;17.50;99.90;;;18.66;69.39;97803.19;5056036;28;20415;-46
2023/06/23 02:28:54;;;;;;;6.13;5.47;;;17.40;99.90;;;18.70;69.30;97794.44;5055689;28;20048;-47
2023/06/23 02:31:24;;;;;;;7.82;6.35;;;17.40;99.90;;;18.60;69.81;97796.75;5045210;28;20044;-48
2023/06/23 02:33:52;;;;;;;7.85;6.60;;;17.40;99.90;;;18.71;69.15;97795.31;5056879;28;20040;-47
2023/06/23 02:36:24;;;;;;;8.50;7.70;;;17.40;99.90;;;18.83;68.92;97792.81;5044472;28;20045;-47
2023/06/23 02:38:55;;;;;;;11.52;8.35;;;17.50;99.90;;;18.84;68.70;97799.88;5031539;28;20053;-47
2023/06/23 02:41:26;;;;;;;8.93;6.95;;;17.50;99.90;;;18.96;68.28;97806.28;5067169;28;20051;-47
2023/06/23 02:43:59;;;;;;;10.35;7.90;;;17.60;99.90;;;19.02;68.03;97801.91;5042327;28;20500;-47
2023/06/23 02:46:35;;;;;;;9.43;7.72;;;17.70;99.90;;;18.87;68.45;97816.47;5062013;28;20039;-47
2023/06/23 02:49:09;;;;;;;9.70;8.63;;;17.50;99.90;;;18.83;68.35;97814.41;5057733;28;20048;-50
2023/06/23 02:51:40;;;;;;;10.27;8.68;;;17.50;99.90;;;18.93;68.09;97806.69;5061247;28;20394;-50
2023/06/23 02:54:12;;;;;;;10.32;8.38;;;17.60;99.90;;;19.10;67.41;97814.34;5030729;28;20059;-48
2023/06/23 02:56:44;;;;;;;9.85;8.32;;;17.70;99.90;;;19.11;67.48;97807.91;5055592;28;20041;-47
2023/06/23 02:59:18;;;;;;;11.27;9.57;;;17.80;99.90;;;18.97;67.56;97817.91;5038300;28;20055;-47
2023/06/23 03:01:52;;;;;;;12.23;8.93;;;17.70;99.90;;;19.16;66.82;97817.03;5073044;28;20423;-47
2023/06/23 03:04:22;;;;;;;10.32;8.68;;;17.90;99.90;;;18.97;67.16;97820.59;5028112;28;20049;-47
2023/06/23 03:06:51;;;;;;;12.02;9.38;;;17.70;99.90;;;19.11;66.74;97827.59;5050543;28;20496;-48
2023/06/23 03:09:19;;;;;;;9.15;7.90;;;17.80;99.90;;;19.30;66.18;97825.09;5071657;28;20558;-47
2023/06/23 03:11:46;;;;;;;11.68;8.73;;;18.00;99.90;;;19.26;66.06;97830.88;5038311;28;20048;-48
2023/06/23 03:14:14;;;;;;;12.65;8.13;;;18.00;99.90;;;19.26;66.12;97822.78;5041399;28;20047;-49
2023/06/23 03:16:48;;;;;;;11.48;9.98;;;18.00;99.90;;;19.17;66.16;97829.47;5041776;28;20431;-48
2023/06/23 03:19:55;;;;;;;11.27;9.55;;;17.90;99.90;;;19.07;66.23;97837.16;5068006;28;20036;-47
2023/06/23 03:22:28;;;;;;;10.52;9.00;;;17.80;99.90;;;18.93;66.53;97828.28;5047008;28;20040;-47
2023/06/23 03:25:02;;;;;;;;;;;17.80;99.90;;;18.84;66.79;97827.69;5063499;28;20052;-47
2023/06/23 03:27:32;;;;;;;12.45;9.77;;;17.70;99.90;;;18.92;66.68;97847.38;5056383;28;19920;-46
2023/06/23 03:30:12;;;;;;;11.90;9.18;;;17.80;99.90;;;18.96;66.67;97848.59;5055604;28;20052;-47
2023/06/23 03:32:48;;;;;;;12.43;9.32;;;17.80;99.90;;;19.11;66.08;97851.06;5050911;28;20411;-48
2023/06/23 03:35:24;;;;;;;11.20;9.18;;;17.90;99.90;;;18.97;66.23;97859.19;5050376;28;20121;-47
2023/06/23 03:37:59;;;;;;;12.15;10.40;;;17.90;99.90;;;19.06;66.19;97854.41;5036975;28;20045;-47
2023/06/23 03:40:31;;;;;;;12.50;9.38;;;17.90;99.90;;;19.14;65.63;97856.88;5054874;28;20048;-48
2023/06/23 03:46:12;;;;;;;13.23;10.68;;;18.10;99.90;;;19.27;65.20;97866.84;5062046;28;20051;-50
2023/06/23 03:48:43;;;;;;;10.73;8.95;;;18.10;99.90;;;19.40;64.72;97868.66;5060138;28;20049;-48
2023/06/23 03:51:14;;;;;;;12.23;10.27;;;18.20;99.90;;;19.07;65.82;97870.38;5056652;28;20049;-47
2023/06/23 03:53:47;;;;;;;12.85;11.02;;;18.00;99.90;;;18.93;66.11;97868.75;5050387;28;20420;-49
2023/06/23 03:56:16;;;;;;;13.05;11.07;;;17.90;99.90;;;19.16;65.41;97878.28;5056730;28;20424;-47
2023/06/23 03:58:48;;;;;;;12.98;10.50;;;18.00;99.90;;;19.16;65.32;97886.38;5058171;28;20044;-48
2023/06/23 04:01:18;;;;;;;14.65;11.60;;;18.00;99.90;;;19.08;65.59;97876.63;5083140;28;20401;-50
2023/06/23 04:03:52;;;;;;;14.85;11.77;;;18.00;99.90;;;19.00;65.82;97885.75;5083572;28;20051;-50
2023/06/23 04:06:21;;;;;;;14.27;12.77;;;17.90;99.90;;;19.17;65.57;97888.81;5077566;28;20048;-47
2023/06/23 04:08:54;;;;;;;13.77;12.27;;;18.10;99.90;;;19.22;65.60;97899.00;5053857;28;20045;-48
2023/06/23 04:11:22;;;;;;;13.68;12.18;;;18.10;99.90;;;19.21;65.29;97894.63;5045897;28;20043;-47
2023/06/23 04:13:51;;;;;;;16.10;12.73;;;18.10;99.90;;;19.32;64.72;97899.41;5054142;28;20047;-48
2023/06/23 04:16:20;;;;;;;16.63;12.43;;;18.20;99.90;;;19.20;65.21;97899.22;5036746;28;20044;-49
2023/06/23 04:18:51;;;;;;;15.15;13.18;;;18.20;99.90;;;19.16;65.15;97916.88;5053582;28;20044;-51
2023/06/23 04:21:21;;;;;;;17.25;13.75;;;18.10;99.90;;;19.29;65.08;97916.03;5082844;28;20044;-48
2023/06/23 04:23:50;;;;;;;16.50;12.85;;;18.20;99.90;;;19.42;64.41;97924.06;5083389;28;20426;-48
2023/06/23 04:26:18;;;;;;;14.60;12.88;;;18.30;99.90;;;19.42;64.44;97921.38;5056973;28;20419;-47
2023/06/23 04:28:47;;;;;;;15.93;13.40;;;18.40;99.90;;;19.59;63.85;97919.06;5082668;28;20495;-46
2023/06/23 04:31:17;;;;;;;16.35;14.25;;;18.50;99.90;;;19.53;64.05;97919.91;5056957;28;20041;-48
2023/06/23 04:33:45;;;;;;;17.40;14.13;;;18.40;99.90;;;19.45;64.16;97934.47;5055453;28;20053;-49
2023/06/23 04:36:16;;;;;;;19.30;15.68;;;18.40;99.90;;;19.58;63.91;97938.16;5055308;28;20036;-47
2023/06/23 04:38:56;;;;;;;19.00;15.98;;;18.40;99.90;;;19.54;63.76;97953.13;5082621;28;20040;-47
2023/06/23 04:41:26;;;;;;;19.45;15.68;;;18.40;99.90;;;19.66;63.32;97949.59;5045712;28;20040;-52
2023/06/23 04:43:57;;;;;;;20.73;16.90;;;18.50;99.90;;;19.70;63.61;97952.69;5053718;28;20045;-47
2023/06/23 04:46:31;;;;;;;20.00;15.77;;;18.50;99.90;;;19.70;63.51;97958.09;5028981;28;20051;-46
2023/06/23 04:49:08;;;;;;;20.27;17.92;;;18.50;99.90;;;19.63;63.55;97947.28;5053024;28;20057;-50
2023/06/23 04:51:46;;;;;;;19.60;16.15;;;18.50;99.90;;;19.58;63.96;97954.38;5053702;28;20036;-45
2023/06/23 04:54:26;;;;;;;23.45;18.08;;;18.40;99.90;;;19.57;63.76;97956.25;5055762;28;20046;-48
2023/06/23 04:57:01;;;;;;;24.17;19.13;;;18.50;99.90;;;19.42;64.26;97967.28;5057467;28;20044;-46
2023/06/23 04:59:35;;;;;;;20.25;18.00;;;18.40;99.90;;;19.67;63.82;97975.53;5050031;28;20399;-46
2023/06/23 05:02:04;;;;;;;22.65;18.80;;;18.60;99.90;;;19.57;63.58;97969.75;5056643;28;20044;-46
2023/06/23 05:04:34;;;;;;;24.02;20.45;;;18.50;99.90;;;19.75;63.23;97970.97;5039262;28;20045;-47
2023/06/23 05:07:03;;;;;;;25.17;19.73;;;18.70;99.90;;;19.73;62.80;97989.28;5041991;28;20052;-47
2023/06/23 05:09:34;;;;;;;27.30;20.60;;;18.70;99.90;;;19.57;63.11;97993.22;5082047;28;20036;-47
2023/06/23 05:12:03;;;;;;;25.80;19.02;;;18.60;99.90;;;19.51;63.42;97989.50;5082285;28;20074;-47
2023/06/23 05:14:33;;;;;;;25.67;20.90;;;18.50;99.90;;;19.37;63.87;97990.56;5053380;28;20044;-47
2023/06/23 05:17:02;;;;;;;25.25;21.13;;;18.50;99.90;;;19.39;63.86;97981.22;5053263;28;20535;-47
2023/06/23 05:19:31;;;;;;;24.88;19.70;;;18.50;99.90;;;19.23;64.34;97989.72;5064625;28;20055;-47
2023/06/23 05:22:00;;;;;;;26.10;21.15;;;18.40;99.90;;;19.51;63.60;97983.28;5048879;28;20045;-47
2023/06/23 05:24:29;;;;;;;28.75;22.05;;;18.50;99.90;;;19.65;63.32;97974.09;5044771;28;20514;-48
2023/06/23 05:27:07;;;;;;;30.05;22.63;;;18.70;99.90;;;19.54;62.88;97985.53;5078742;28;20044;-46
2023/06/23 05:29:40;;;;;;;29.88;20.95;;;18.60;99.90;;;19.33;63.62;97992.84;5067740;28;20040;-46
2023/06/23 05:32:16;;;;;;;25.88;20.38;;;18.50;99.90;;;19.42;63.51;97998.84;5081740;28;20044;-45
2023/06/23 05:34:47;;;;;;;29.00;23.52;;;18.50;99.90;;;19.40;63.59;97992.81;5053252;28;20500;-46
2023/06/23 05:37:19;;;;;;;30.63;23.20;;;18.50;99.90;;;19.52;63.13;97990.31;5052248;28;20036;-46
2023/06/23 05:39:48;;;;;;;32.55;24.35;;;18.70;99.90;;;19.82;62.51;97993.41;5053089;28;20464;-49
2023/06/23 05:42:19;;;;;;;31.05;24.30;;;18.80;99.90;;;19.73;62.13;97995.50;5053182;28;20040;-49
2023/06/23 05:44:46;;;;;;;29.15;23.20;;;18.80;99.90;;;19.80;62.01;97995.50;5052935;28;20500;-46
2023/06/23 05:47:25;;;;;;;31.10;24.35;;;18.80;99.90;;;20.00;61.69;98004.34;5033747;28;20045;-47
2023/06/23 05:49:59;;;;;;;30.23;24.95;;;18.90;99.90;;;20.08;61.17;98000.59;5052871;28;20048;-47
2023/06/23 05:52:29;;;;;;;32.40;24.88;;;19.00;99.90;;;20.24;60.99;97997.41;5082313;28;20044;-50
2023/06/23 05:55:02;;;;;;;31.58;22.17;;;19.20;99.90;;;20.15;60.55;98003.28;5060929;28;20424;-49
2023/06/23 05:57:33;;;;;;;31.97;24.47;;;19.10;99.00;;;20.37;60.46;97996.50;5055976;28;20051;-46
2023/06/23 06:00:09;;;;;;;30.35;23.05;;;19.30;99.90;;;20.01;60.98;98014.13;5056424;28;20071;-47
2023/06/23 06:02:45;;;;;;;30.67;23.80;;;19.00;99.90;;;20.16;60.50;98007.63;5069677;28;20052;-46
2023/06/23 06:05:17;;;;;;;31.10;23.73;;;19.10;99.90;;;20.33;60.16;98016.09;5056457;28;20052;-46
2023/06/23 06:07:47;;;;;;;28.13;22.30;;;19.20;99.90;;;20.43;60.14;98016.47;5056388;28;20273;-47
2023/06/23 06:10:17;;;;;;;28.60;23.73;;;19.30;99.90;;;20.36;59.90;98019.22;5056107;28;20041;-47
2023/06/23 06:12:47;;;;;;;34.28;24.48;;;19.20;99.90;;;20.37;59.97;98028.13;5056302;28;20056;-47
2023/06/23 06:15:18;;;;;;;31.15;23.80;;;19.20;99.90;;;20.32;59.76;98023.38;5073906;28;20500;-46
2023/06/23 06:17:47;;;;;;;31.77;24.27;;;19.10;99.90;;;20.14;60.07;98034.91;5081344;28;20045;-46
2023/06/23 06:20:18;;;;;;;31.52;24.52;;;18.90;99.90;;;20.24;60.22;98040.69;5041096;28;20400;-48
2023/06/23 06:22:47;;;;;;;32.17;25.25;;;19.00;99.90;;;19.92;60.63;98038.91;5085654;28;20059;-47
2023/06/23 06:25:18;;;;;;;31.33;24.38;;;18.80;99.90;;;19.97;60.72;98050.75;5083803;28;20067;-46
2023/06/23 06:27:47;;;;;;;31.02;25.80;;;18.70;99.90;;;20.04;60.13;98037.19;5081695;28;20408;-48
2023/06/23 06:30:17;;;;;;;33.10;24.17;;;18.80;99.90;;;19.83;60.92;98049.94;5046997;28;20055;-48
2023/06/23 06:32:45;;;;;;;35.78;25.77;;;18.70;99.90;;;19.71;61.60;98050.75;5056009;28;20044;-48
2023/06/23 06:35:15;;;;;;;33.65;25.08;;;18.60;99.90;;;19.62;61.55;98058.25;5055536;28;20048;-49
2023/06/23 06:37:47;;;;;;;35.25;26.27;;;18.40;99.90;;;19.71;61.31;98066.94;5062671;28;20517;-48
2023/06/23 06:40:21;;;;;;;32.08;25.40;;;18.50;99.90;;;19.60;61.88;98071.97;5082941;28;20056;-47
2023/06/23 06:42:49;;;;;;;32.70;23.95;;;18.50;99.90;;;19.34;62.59;98083.56;5062551;28;20044;-47
2023/06/23 06:45:16;;;;;;;35.60;26.73;;;18.40;99.90;;;19.46;62.55;98065.72;5082594;28;20071;-46
2023/06/23 06:47:46;;;;;;;32.58;25.02;;;18.50;99.90;;;19.70;61.87;98071.53;5083946;28;20411;-48
2023/06/23 06:50:16;;;;;;;33.33;24.38;;;18.70;99.90;;;19.77;61.74;98075.06;5083851;28;20048;-50
2023/06/23 06:52:45;;;;;;;30.60;23.92;;;18.70;99.90;;;19.62;61.72;98066.34;5081512;28;20040;-47
2023/06/23 06:55:18;;;;;;;27.73;21.60;;;18.70;99.90;;;19.72;61.07;98083.00;5081563;28;20052;-53
2023/06/23 06:57:47;;;;;;;31.17;23.80;;;18.80;99.90;;;19.60;61.47;98085.47;5062106;28;20420;-50
2023/06/23 07:00:20;;;;;;;28.65;20.65;;;18.80;99.90;;;19.87;60.43;98088.16;5081620;28;20052;-52
2023/06/23 07:02:48;;;;;;;27.33;20.77;;;19.00;98.00;;;20.26;59.75;98083.72;5051110;28;20055;-53
2023/06/23 07:05:16;;;;;;;29.13;22.00;;;19.40;96.30;;;20.40;59.66;98093.44;5081450;28;20048;-54
2023/06/23 07:07:45;;;;;;;26.55;20.52;;;19.50;97.20;;;20.48;58.85;98102.38;5084285;28;20052;-53
2023/06/23 07:10:13;;;;;;;27.33;20.58;;;19.60;94.80;;;20.59;58.44;98110.66;5058567;28;20434;-51
2023/06/23 07:12:40;;;;;;;26.80;20.40;;;19.70;95.00;;;20.60;57.99;98125.84;5084060;28;20495;-49
2023/06/23 07:15:08;;;;;;;26.08;19.50;;;19.70;91.50;;;20.44;57.68;98113.59;5057833;28;20054;-52
2023/06/23 07:17:36;;;;;;;24.00;19.02;;;19.60;92.60;;;20.51;58.16;98119.00;5072313;28;20056;-51
2023/06/23 07:20:08;;;;;;;24.35;19.38;;;19.60;93.80;;;20.71;57.34;98118.13;5072831;28;20041;-49
2023/06/23 07:22:36;;;;;;;23.38;18.75;;;19.80;92.20;;;20.67;57.04;98122.31;5075419;28;20040;-49
2023/06/23 07:25:05;;;;;;;26.30;18.52;;;19.70;90.00;;;20.49;57.54;98129.19;5059404;28;20052;-49
2023/06/23 07:27:32;;;;;;;27.13;19.58;;;19.60;92.60;;;20.62;57.25;98134.56;5083098;28;20055;-48
2023/06/23 07:30:00;;;;;;;22.73;19.50;;;19.70;92.70;;;20.39;57.39;98132.31;5065680;28;20048;-51
2023/06/23 07:32:28;;;;;;;22.63;18.30;;;19.50;92.00;;;20.58;57.49;98137.88;5082005;28;20039;-46
2023/06/23 07:34:56;;;;;;;25.00;18.85;;;19.50;92.30;;;20.60;57.43;98133.13;5077668;28;20079;-50
2023/06/23 07:37:23;;;;;;;23.58;18.60;;;19.70;92.60;;;20.70;57.58;98144.31;5080645;28;20048;-49
2023/06/23 07:39:51;;;;;;;22.05;17.95;;;19.90;92.30;;;20.81;56.96;98150.94;5060163;28;20052;-49
2023/06/23 07:42:18;;;;;;;23.27;18.00;;;19.90;90.10;;;20.87;56.48;98151.97;5081003;28;20052;-47
2023/06/23 07:44:46;;;;;;;25.00;18.52;;;19.90;90.80;;;20.72;56.28;98171.16;5083429;28;20048;-48
2023/06/23 07:47:14;;;;;;;24.77;19.38;;;19.80;89.40;;;20.56;56.75;98170.56;5057018;28;20159;-49
2023/06/23 07:49:42;;;;;;;22.40;17.45;;;19.60;90.40;;;20.62;56.49;98167.03;5067327;28;20503;-48
2023/06/23 07:52:09;;;;;;;20.77;17.00;;;19.50;91.10;;;20.49;56.86;98172.47;5083527;28;20411;-50
2023/06/23 07:54:39;;;;;;;25.23;19.00;;;19.50;90.60;;;20.57;56.44;98176.78;5080152;28;20047;-49
2023/06/23 07:57:11;;;;;;;22.00;17.83;;;19.50;91.80;;;20.47;57.03;98188.06;5080229;28;20046;-49
2023/06/23 07:59:39;;;;;;;23.45;18.75;;;19.40;91.70;;;20.49;56.65;98193.25;5083118;28;20043;-48
2023/06/23 08:02:07;;;;;;;20.88;17.42;;;19.40;92.00;;;20.39;57.03;98196.38;5083813;28;20047;-51
2023/06/23 08:04:36;;;;;;;20.38;17.83;;;19.30;91.60;;;20.46;56.56;98208.03;5080199;28;20053;-48
2023/06/23 08:07:05;;;;;;;22.85;17.67;;;19.30;91.90;;;20.61;56.62;98203.25;5080008;28;20498;-47
2023/06/23 08:09:32;;;;;;;25.20;20.10;;;19.40;92.90;;;20.35;57.39;98205.97;5081851;28;20040;-50
2023/06/23 08:12:00;;;;;;;22.15;16.60;;;19.30;92.90;;;20.46;56.55;98213.44;5065673;28;20036;-49
2023/06/23 08:14:28;;;;;;;18.92;15.27;;;19.40;91.70;;;20.55;56.40;98208.63;5081710;28;20047;-48
2023/06/23 08:16:55;;;;;;;18.48;15.50;;;19.40;91.10;;;20.73;55.21;98225.06;5079018;28;20063;-48
2023/06/23 08:19:24;;;;;;;18.77;15.75;;;19.60;88.20;;;20.48;56.49;98222.19;5080362;28;20041;-49
2023/06/23 08:21:53;;;;;;;17.48;14.00;;;19.50;90.40;;;20.46;56.39;98222.38;5083304;28;20048;-49
2023/06/23 08:24:20;;;;;;;18.27;14.73;;;19.60;90.40;;;20.46;56.37;98227.78;5082721;28;20047;-49
2023/06/23 08:26:48;;;;;;;16.88;14.35;;;19.60;88.50;;;20.32;56.53;98230.75;5080006;28;20044;-49
2023/06/23 08:29:15;;;;;;;14.65;12.38;;;19.70;87.90;;;20.49;56.00;98231.97;5079461;28;20048;-47
2023/06/23 08:31:43;;;;;;;20.75;14.73;;;19.80;87.30;;;20.60;56.15;98227.81;5082801;28;20040;-48
2023/06/23 08:34:11;;;;;;;17.05;14.00;;;20.00;86.80;;;20.85;55.47;98233.34;5082936;28;20046;-47
2023/06/23 08:36:38;;;;;;;18.52;13.13;;;20.20;87.70;;;21.02;55.28;98215.59;5079935;28;20067;-47
2023/06/23 08:39:06;;;;;;;16.90;14.52;;;20.30;87.00;;;21.32;54.91;98222.34;5079948;28;20040;-49
2023/06/23 08:41:38;;;;;;;18.33;13.93;;;20.50;85.50;;;21.29;54.30;98228.19;5081823;28;20059;-48
2023/06/23 08:44:10;;;;;;;15.65;12.75;;;20.60;83.50;;;21.42;54.54;98209.16;5059656;28;20044;-49
2023/06/23 08:46:41;;;;;;;16.37;13.77;;;20.70;83.70;;;21.51;53.84;98224.13;5081530;28;20036;-47
2023/06/23 08:49:32;;;;;;;19.83;15.90;;;20.70;82.70;;;21.61;53.83;98223.66;5081709;28;20293;-47
2023/06/23 08:52:01;;;;;;;19.00;14.75;;;20.70;83.50;;;21.74;53.39;98220.84;5053007;28;20052;-47
2023/06/23 08:54:30;;;;;;;17.80;15.23;;;20.80;83.70;;;21.72;54.00;98231.09;5080772;28;20036;-52
2023/06/23 08:56:58;;;;;;;16.67;14.85;;;20.90;84.30;;;21.38;54.04;98227.72;5060239;28;20049;-48
2023/06/23 08:59:26;;;;;;;13.82;12.38;;;20.60;83.30;;;21.26;54.04;98231.31;5079031;28;20032;-47
2023/06/23 09:01:53;;;;;;;15.63;13.98;;;20.60;83.30;;;21.31;54.52;98226.94;5079178;28;20052;-48
2023/06/23 09:04:21;;;;;;;15.90;13.93;;;20.60;84.60;;;21.65;53.69;98229.47;5053137;28;20043;-47
2023/06/23 09:06:49;;;;;;;18.17;12.45;;;20.90;83.30;;;21.57;53.42;98253.06;5045038;28;20048;-49
2023/06/23 09:09:18;;;;;;;16.95;13.07;;;21.00;81.00;;;21.69;52.93;98250.47;5078992;28;20048;-48
2023/06/23 09:11:46;;;;;;;15.75;13.82;;;21.00;80.60;;;21.53;53.30;98232.88;5056006;28;20063;-48
2023/06/23 09:14:14;;;;;;;15.45;13.10;;;20.90;80.70;;;21.66;53.10;98241.97;5082810;28;20047;-47
2023/06/23 09:16:42;;;;;;;15.57;12.20;;;20.90;81.70;;;21.75;52.56;98246.06;5055760;28;20044;-48
2023/06/23 09:19:11;;;;;;;11.50;10.07;;;20.90;80.70;;;21.65;51.29;98251.97;5057914;28;20045;-48
2023/06/23 09:21:41;;;;;;;12.98;10.85;;;20.90;78.00;;;21.63;51.09;98256.78;5038386;28;20045;-50
2023/06/23 09:24:09;;;;;;;16.33;11.60;;;20.90;77.10;;;21.85;51.75;98248.28;5058636;28;20051;-48
2023/06/23 09:27:03;;;;;;;11.90;9.52;;;21.20;77.70;;;21.59;51.46;98240.13;5087719;28;20630;-51
2023/06/23 09:29:30;;;;;;;;;;;20.90;77.40;;;21.86;51.24;98244.56;5079954;28;20405;-52
2023/06/23 09:31:59;;;;;;;12.48;10.38;;;21.10;77.00;;;21.94;50.54;98245.09;5086616;28;20359;-50
2023/06/23 09:34:30;;;;;;;13.10;8.75;;;21.00;75.90;;;22.01;50.66;98240.47;5086422;28;20044;-52
2023/06/23 09:37:13;;;;;;;14.85;8.60;;;21.20;77.30;;;22.07;48.92;98244.19;5083106;28;20036;-49
2023/06/23 09:39:48;;;;;;;9.82;7.78;;;21.30;72.00;;;22.30;49.44;98243.59;5058779;28;20044;-51
2023/06/23 09:42:16;;;;;;;9.05;7.53;;;21.60;73.20;;;22.32;48.49;98248.81;5060849;28;20079;-50
2023/06/23 09:44:46;;;;;;;12.95;10.43;;;21.60;70.60;;;22.63;49.03;98249.78;5074947;28;20052;-49
2023/06/23 09:47:16;;;;;;;12.70;9.98;;;21.80;72.20;;;22.75;48.54;98256.94;5073616;28;20544;-47
2023/06/23 09:49:47;;;;;;;11.85;10.15;;;22.00;70.70;;;22.80;48.19;98251.69;5084712;28;20427;-49
2023/06/23 09:52:26;;;;;;;12.98;9.80;;;22.00;71.10;;;22.79;47.56;98249.19;5085268;28;20055;-51
2023/06/23 09:54:55;;;;;;;13.43;9.32;;;21.90;69.40;;;22.78;46.87;98245.66;5070588;28;20040;-49
2023/06/23 09:57:23;;;;;;;11.10;10.00;;;22.00;67.70;;;22.63;47.77;98247.06;5086606;28;20044;-53
2023/06/23 09:59:53;;;;;;;12.52;10.15;;;21.80;69.20;;;22.69;48.12;98238.84;5082817;28;20288;-49
2023/06/23 10:02:26;;;;;;;13.50;11.52;;;21.80;70.70;;;22.73;47.77;98253.63;5056863;28;20520;-48
2023/06/23 10:05:04;;;;;;;10.20;8.88;;;22.00;69.00;;;22.78;46.96;98240.22;5078071;28;20515;-49
2023/06/23 10:07:34;;;;;;;10.95;8.55;;;22.00;67.10;;;22.57;47.33;98246.91;5059455;28;20041;-52
2023/06/23 10:10:07;;;;;;;8.77;7.45;;;22.00;66.70;;;22.48;47.60;98245.53;5085622;28;20491;-50
2023/06/23 10:12:39;;;;;;;9.93;8.20;;;22.00;66.70;;;22.69;47.10;98241.56;5084183;28;20036;-51
2023/06/23 10:15:09;;;;;;;11.35;8.48;;;22.10;66.20;;;22.58;46.27;98255.84;5082396;28;20041;-48
2023/06/23 10:17:38;;;;;;;9.07;8.13;;;22.00;64.00;;;22.50;46.80;98262.41;5083017;28;20041;-53
2023/06/23 10:20:07;;;;;;;10.60;9.50;;;21.80;65.70;;;22.54;47.54;98258.19;5085602;28;20431;-47
2023/06/23 10:22:37;;;;;;;12.38;10.68;;;21.70;67.90;;;22.66;47.61;98254.75;5083583;28;20051;-48
2023/06/23 10:25:10;;;;;;;11.25;10.05;;;21.70;68.20;;;22.48;47.80;98269.13;5081977;28;20048;-50
2023/06/23 10:27:41;;;;;;;12.35;9.43;;;21.50;68.30;;;22.50;47.77;98273.25;5057135;28;20049;-48
2023/06/23 10:30:11;;;;;;;9.95;8.82;;;21.50;68.30;;;22.47;47.30;98273.72;5045894;28;20051;-47